Kezhma, Russia
Current Conditions -  °F | °C
As of 7:00 AM on Monday 24 Nov 2014 (Local Time) from UIBB Reporting Station
Overcast Overcast  
Wind Chill: 13°   Ceiling: 10000
Heat Index: 21°   Visibility: 3mi
Dew Point:   Wind: 7mph
Humidity: 54%   Direction: 210°SSW
Pressure: 29.5"   Gusts: NA
Location:  58.98°N, 101.2°E
Report Text: UIBB 240000Z 21003MPS P5000 SCT033CB OVC100 M06/M14 Q0999 NOSIGRMK QFE707/0943 30420540
Loading
Personal Weather Stations






























Interactive Weather Map New forecast layout! Learn more

10-Day Weather Forecast

Advertisements
Track Severe Weather on mobile